sensor_id;sensor_type;location;lat;lon;timestamp;P1;durP1;ratioP1;P2;durP2;ratioP2
75470;SDS011;64051;46.320;48.028;2023-03-01T00:02:06;27.05;;;9.23;;
75470;SDS011;64051;46.320;48.028;2023-03-01T00:04:32;28.25;;;10.70;;
75470;SDS011;64051;46.320;48.028;2023-03-01T00:06:58;26.67;;;10.02;;
75470;SDS011;64051;46.320;48.028;2023-03-01T00:09:24;22.80;;;8.55;;
75470;SDS011;64051;46.320;48.028;2023-03-01T00:11:50;18.52;;;8.23;;
75470;SDS011;64051;46.320;48.028;2023-03-01T00:14:16;36.60;;;11.90;;
75470;SDS011;64051;46.320;48.028;2023-03-01T00:16:43;35.75;;;11.68;;
75470;SDS011;64051;46.320;48.028;2023-03-01T00:19:11;17.60;;;7.95;;
75470;SDS011;64051;46.320;48.028;2023-03-01T00:21:40;31.20;;;10.38;;
75470;SDS011;64051;46.320;48.028;2023-03-01T00:24:06;23.73;;;9.00;;
75470;SDS011;64051;46.320;48.028;2023-03-01T00:26:32;25.00;;;10.05;;
75470;SDS011;64051;46.320;48.028;2023-03-01T00:28:58;28.05;;;10.90;;
75470;SDS011;64051;46.320;48.028;2023-03-01T00:31:26;27.05;;;10.02;;
75470;SDS011;64051;46.320;48.028;2023-03-01T00:33:55;22.27;;;8.27;;
75470;SDS011;64051;46.320;48.028;2023-03-01T00:36:23;30.48;;;10.90;;
75470;SDS011;64051;46.320;48.028;2023-03-01T00:38:50;22.52;;;8.77;;
75470;SDS011;64051;46.320;48.028;2023-03-01T00:41:17;21.05;;;8.13;;
75470;SDS011;64051;46.320;48.028;2023-03-01T00:43:44;17.65;;;7.72;;
75470;SDS011;64051;46.320;48.028;2023-03-01T00:46:14;20.02;;;7.10;;
75470;SDS011;64051;46.320;48.028;2023-03-01T00:48:42;22.90;;;7.68;;
75470;SDS011;64051;46.320;48.028;2023-03-01T00:53:36;19.98;;;6.30;;
75470;SDS011;64051;46.320;48.028;2023-03-01T00:56:02;20.48;;;7.05;;
75470;SDS011;64051;46.320;48.028;2023-03-01T00:58:30;16.70;;;6.47;;
75470;SDS011;64051;46.320;48.028;2023-03-01T01:00:56;17.33;;;6.53;;
75470;SDS011;64051;46.320;48.028;2023-03-01T01:03:22;18.83;;;6.75;;
75470;SDS011;64051;46.320;48.028;2023-03-01T01:05:50;18.35;;;5.70;;
75470;SDS011;64051;46.320;48.028;2023-03-01T01:08:17;19.42;;;5.68;;
75470;SDS011;64051;46.320;48.028;2023-03-01T01:10:44;23.60;;;5.88;;
75470;SDS011;64051;46.320;48.028;2023-03-01T01:13:11;19.17;;;5.90;;
75470;SDS011;64051;46.320;48.028;2023-03-01T01:15:37;20.80;;;5.80;;
75470;SDS011;64051;46.320;48.028;2023-03-01T01:18:04;14.55;;;5.78;;
75470;SDS011;64051;46.320;48.028;2023-03-01T01:20:30;15.73;;;6.05;;
75470;SDS011;64051;46.320;48.028;2023-03-01T01:22:57;14.40;;;5.05;;
75470;SDS011;64051;46.320;48.028;2023-03-01T01:25:23;19.90;;;7.75;;
75470;SDS011;64051;46.320;48.028;2023-03-01T01:27:53;19.95;;;6.22;;
75470;SDS011;64051;46.320;48.028;2023-03-01T01:30:19;23.38;;;7.53;;
75470;SDS011;64051;46.320;48.028;2023-03-01T01:32:44;26.20;;;6.95;;
75470;SDS011;64051;46.320;48.028;2023-03-01T01:35:11;24.75;;;7.85;;
75470;SDS011;64051;46.320;48.028;2023-03-01T01:37:37;16.05;;;6.47;;
75470;SDS011;64051;46.320;48.028;2023-03-01T01:40:03;19.05;;;6.20;;
75470;SDS011;64051;46.320;48.028;2023-03-01T01:42:29;22.80;;;8.07;;
75470;SDS011;64051;46.320;48.028;2023-03-01T01:47:53;31.88;;;7.05;;
75470;SDS011;64051;46.320;48.028;2023-03-01T01:50:23;21.75;;;7.53;;
75470;SDS011;64051;46.320;48.028;2023-03-01T01:52:49;17.58;;;6.80;;
75470;SDS011;64051;46.320;48.028;2023-03-01T01:55:18;25.13;;;8.18;;
75470;SDS011;64051;46.320;48.028;2023-03-01T01:57:52;25.45;;;8.50;;
75470;SDS011;64051;46.320;48.028;2023-03-01T02:00:21;24.48;;;8.20;;
75470;SDS011;64051;46.320;48.028;2023-03-01T02:02:50;24.00;;;6.82;;
75470;SDS011;64051;46.320;48.028;2023-03-01T02:08:12;13.13;;;4.45;;
75470;SDS011;64051;46.320;48.028;2023-03-01T02:10:40;15.27;;;6.00;;
75470;SDS011;64051;46.320;48.028;2023-03-01T02:13:08;12.45;;;4.10;;
75470;SDS011;64051;46.320;48.028;2023-03-01T02:15:35;18.58;;;6.13;;
75470;SDS011;64051;46.320;48.028;2023-03-01T02:18:03;18.38;;;6.15;;
75470;SDS011;64051;46.320;48.028;2023-03-01T02:20:34;18.55;;;7.18;;
75470;SDS011;64051;46.320;48.028;2023-03-01T02:23:14;11.48;;;4.47;;
75470;SDS011;64051;46.320;48.028;2023-03-01T02:25:50;15.98;;;5.30;;
75470;SDS011;64051;46.320;48.028;2023-03-01T02:28:40;12.02;;;5.30;;
75470;SDS011;64051;46.320;48.028;2023-03-01T02:31:09;13.73;;;4.20;;
75470;SDS011;64051;46.320;48.028;2023-03-01T02:33:55;14.00;;;4.35;;
75470;SDS011;64051;46.320;48.028;2023-03-01T02:36:24;11.13;;;4.40;;
75470;SDS011;64051;46.320;48.028;2023-03-01T02:38:56;8.38;;;3.13;;
75470;SDS011;64051;46.320;48.028;2023-03-01T02:41:24;6.45;;;2.90;;
75470;SDS011;64051;46.320;48.028;2023-03-01T02:43:53;7.68;;;3.55;;
75470;SDS011;64051;46.320;48.028;2023-03-01T02:46:22;8.52;;;2.75;;
75470;SDS011;64051;46.320;48.028;2023-03-01T02:48:53;10.90;;;3.47;;
75470;SDS011;64051;46.320;48.028;2023-03-01T02:54:54;7.82;;;2.88;;
75470;SDS011;64051;46.320;48.028;2023-03-01T02:56:51;5.55;;;2.25;;
75470;SDS011;64051;46.320;48.028;2023-03-01T02:59:21;7.85;;;3.65;;
75470;SDS011;64051;46.320;48.028;2023-03-01T03:01:50;11.48;;;3.80;;
75470;SDS011;64051;46.320;48.028;2023-03-01T03:04:17;10.60;;;4.10;;
75470;SDS011;64051;46.320;48.028;2023-03-01T03:06:47;11.55;;;4.50;;
75470;SDS011;64051;46.320;48.028;2023-03-01T03:09:14;7.25;;;2.95;;
75470;SDS011;64051;46.320;48.028;2023-03-01T03:11:42;9.52;;;3.97;;
75470;SDS011;64051;46.320;48.028;2023-03-01T03:14:09;9.52;;;3.20;;
75470;SDS011;64051;46.320;48.028;2023-03-01T03:16:40;9.57;;;4.05;;
75470;SDS011;64051;46.320;48.028;2023-03-01T03:19:07;7.50;;;2.92;;
75470;SDS011;64051;46.320;48.028;2023-03-01T03:21:33;11.23;;;3.83;;
75470;SDS011;64051;46.320;48.028;2023-03-01T03:24:00;10.05;;;4.40;;
75470;SDS011;64051;46.320;48.028;2023-03-01T03:26:26;9.07;;;4.15;;
75470;SDS011;64051;46.320;48.028;2023-03-01T03:28:55;7.72;;;3.60;;
75470;SDS011;64051;46.320;48.028;2023-03-01T03:31:21;4.68;;;1.88;;
75470;SDS011;64051;46.320;48.028;2023-03-01T03:33:47;8.38;;;3.42;;
75470;SDS011;64051;46.320;48.028;2023-03-01T03:36:17;7.85;;;3.55;;
75470;SDS011;64051;46.320;48.028;2023-03-01T03:38:44;8.85;;;3.45;;
75470;SDS011;64051;46.320;48.028;2023-03-01T03:41:14;9.82;;;4.18;;
75470;SDS011;64051;46.320;48.028;2023-03-01T03:43:41;9.13;;;3.60;;
75470;SDS011;64051;46.320;48.028;2023-03-01T03:46:09;7.90;;;3.60;;
75470;SDS011;64051;46.320;48.028;2023-03-01T03:48:37;7.75;;;3.38;;
75470;SDS011;64051;46.320;48.028;2023-03-01T03:51:05;9.60;;;3.50;;
75470;SDS011;64051;46.320;48.028;2023-03-01T03:53:32;7.53;;;3.50;;
75470;SDS011;64051;46.320;48.028;2023-03-01T03:55:58;10.70;;;3.30;;
75470;SDS011;64051;46.320;48.028;2023-03-01T03:58:25;10.30;;;3.38;;
75470;SDS011;64051;46.320;48.028;2023-03-01T04:00:52;7.50;;;3.00;;
75470;SDS011;64051;46.320;48.028;2023-03-01T04:03:24;17.90;;;3.45;;
75470;SDS011;64051;46.320;48.028;2023-03-01T04:05:51;10.05;;;4.50;;
75470;SDS011;64051;46.320;48.028;2023-03-01T04:08:18;9.98;;;4.20;;
75470;SDS011;64051;46.320;48.028;2023-03-01T04:10:51;9.10;;;3.55;;
75470;SDS011;64051;46.320;48.028;2023-03-01T04:13:21;7.85;;;3.13;;
75470;SDS011;64051;46.320;48.028;2023-03-01T04:15:51;7.00;;;2.80;;
75470;SDS011;64051;46.320;48.028;2023-03-01T04:18:18;10.55;;;4.88;;
75470;SDS011;64051;46.320;48.028;2023-03-01T04:20:51;8.80;;;4.40;;
75470;SDS011;64051;46.320;48.028;2023-03-01T04:23:20;11.02;;;4.75;;
75470;SDS011;64051;46.320;48.028;2023-03-01T04:25:55;11.60;;;3.50;;
75470;SDS011;64051;46.320;48.028;2023-03-01T04:28:23;10.25;;;3.90;;
75470;SDS011;64051;46.320;48.028;2023-03-01T04:30:51;10.43;;;4.30;;
75470;SDS011;64051;46.320;48.028;2023-03-01T04:33:21;11.50;;;4.38;;
75470;SDS011;64051;46.320;48.028;2023-03-01T04:35:48;7.38;;;2.83;;
75470;SDS011;64051;46.320;48.028;2023-03-01T04:38:15;16.65;;;4.65;;
75470;SDS011;64051;46.320;48.028;2023-03-01T04:40:42;11.23;;;4.80;;
75470;SDS011;64051;46.320;48.028;2023-03-01T04:43:09;12.55;;;3.92;;
75470;SDS011;64051;46.320;48.028;2023-03-01T04:45:41;10.77;;;4.53;;
75470;SDS011;64051;46.320;48.028;2023-03-01T04:48:07;10.82;;;4.18;;
75470;SDS011;64051;46.320;48.028;2023-03-01T04:50:34;13.65;;;4.60;;
75470;SDS011;64051;46.320;48.028;2023-03-01T04:53:00;10.07;;;4.13;;
75470;SDS011;64051;46.320;48.028;2023-03-01T04:55:26;10.55;;;4.07;;
75470;SDS011;64051;46.320;48.028;2023-03-01T04:57:53;7.03;;;2.95;;
75470;SDS011;64051;46.320;48.028;2023-03-01T05:00:20;14.48;;;6.15;;
75470;SDS011;64051;46.320;48.028;2023-03-01T05:02:47;13.13;;;4.20;;
75470;SDS011;64051;46.320;48.028;2023-03-01T05:05:19;7.25;;;2.58;;
75470;SDS011;64051;46.320;48.028;2023-03-01T05:07:51;10.77;;;4.53;;
75470;SDS011;64051;46.320;48.028;2023-03-01T05:10:18;10.30;;;3.63;;
75470;SDS011;64051;46.320;48.028;2023-03-01T05:12:47;10.27;;;4.55;;
75470;SDS011;64051;46.320;48.028;2023-03-01T05:15:13;7.60;;;3.05;;
75470;SDS011;64051;46.320;48.028;2023-03-01T05:17:39;11.43;;;4.55;;
75470;SDS011;64051;46.320;48.028;2023-03-01T05:20:05;10.45;;;4.50;;
75470;SDS011;64051;46.320;48.028;2023-03-01T05:22:34;8.95;;;3.60;;
75470;SDS011;64051;46.320;48.028;2023-03-01T05:25:01;12.20;;;4.85;;
75470;SDS011;64051;46.320;48.028;2023-03-01T05:27:28;13.13;;;4.60;;
75470;SDS011;64051;46.320;48.028;2023-03-01T05:29:56;11.25;;;4.45;;
75470;SDS011;64051;46.320;48.028;2023-03-01T05:32:22;9.45;;;3.92;;
75470;SDS011;64051;46.320;48.028;2023-03-01T05:34:48;8.98;;;3.67;;
75470;SDS011;64051;46.320;48.028;2023-03-01T05:37:14;10.25;;;3.28;;
75470;SDS011;64051;46.320;48.028;2023-03-01T05:39:40;8.95;;;3.63;;
75470;SDS011;64051;46.320;48.028;2023-03-01T05:42:10;11.45;;;4.45;;
75470;SDS011;64051;46.320;48.028;2023-03-01T05:44:40;10.52;;;3.55;;
75470;SDS011;64051;46.320;48.028;2023-03-01T05:47:06;7.53;;;3.75;;
75470;SDS011;64051;46.320;48.028;2023-03-01T05:49:32;11.15;;;4.18;;
75470;SDS011;64051;46.320;48.028;2023-03-01T05:51:58;9.95;;;4.43;;
75470;SDS011;64051;46.320;48.028;2023-03-01T05:54:24;8.65;;;3.33;;
75470;SDS011;64051;46.320;48.028;2023-03-01T05:56:50;10.15;;;3.63;;
75470;SDS011;64051;46.320;48.028;2023-03-01T05:59:16;10.27;;;3.95;;
75470;SDS011;64051;46.320;48.028;2023-03-01T06:01:42;13.25;;;4.63;;
75470;SDS011;64051;46.320;48.028;2023-03-01T06:04:08;9.15;;;3.58;;
75470;SDS011;64051;46.320;48.028;2023-03-01T06:06:35;12.40;;;5.13;;
75470;SDS011;64051;46.320;48.028;2023-03-01T06:09:05;11.65;;;4.57;;
75470;SDS011;64051;46.320;48.028;2023-03-01T06:11:34;8.57;;;3.85;;
75470;SDS011;64051;46.320;48.028;2023-03-01T06:14:03;18.75;;;5.18;;
75470;SDS011;64051;46.320;48.028;2023-03-01T06:16:32;16.15;;;7.40;;
75470;SDS011;64051;46.320;48.028;2023-03-01T06:18:58;15.20;;;5.05;;
75470;SDS011;64051;46.320;48.028;2023-03-01T06:23:51;15.50;;;7.03;;
75470;SDS011;64051;46.320;48.028;2023-03-01T06:26:18;12.32;;;5.60;;
75470;SDS011;64051;46.320;48.028;2023-03-01T06:28:44;14.20;;;5.35;;
75470;SDS011;64051;46.320;48.028;2023-03-01T06:31:11;12.80;;;5.43;;
75470;SDS011;64051;46.320;48.028;2023-03-01T06:33:37;16.17;;;5.88;;
75470;SDS011;64051;46.320;48.028;2023-03-01T06:36:03;15.25;;;6.95;;
75470;SDS011;64051;46.320;48.028;2023-03-01T06:38:29;19.55;;;6.43;;
75470;SDS011;64051;46.320;48.028;2023-03-01T06:40:56;15.07;;;5.35;;
75470;SDS011;64051;46.320;48.028;2023-03-01T06:43:22;16.27;;;6.05;;
75470;SDS011;64051;46.320;48.028;2023-03-01T06:45:49;13.25;;;5.72;;
75470;SDS011;64051;46.320;48.028;2023-03-01T06:48:26;16.67;;;7.03;;
75470;SDS011;64051;46.320;48.028;2023-03-01T06:50:53;17.50;;;7.15;;
75470;SDS011;64051;46.320;48.028;2023-03-01T06:53:19;13.52;;;5.90;;
75470;SDS011;64051;46.320;48.028;2023-03-01T06:55:44;14.00;;;5.85;;
75470;SDS011;64051;46.320;48.028;2023-03-01T06:58:21;15.70;;;6.38;;
75470;SDS011;64051;46.320;48.028;2023-03-01T07:00:50;13.18;;;5.57;;
75470;SDS011;64051;46.320;48.028;2023-03-01T07:03:17;13.25;;;6.00;;
75470;SDS011;64051;46.320;48.028;2023-03-01T07:05:48;13.15;;;5.57;;
75470;SDS011;64051;46.320;48.028;2023-03-01T07:08:15;13.18;;;6.15;;
75470;SDS011;64051;46.320;48.028;2023-03-01T07:10:40;19.00;;;6.65;;
75470;SDS011;64051;46.320;48.028;2023-03-01T07:13:06;18.88;;;7.18;;
75470;SDS011;64051;46.320;48.028;2023-03-01T07:15:33;17.10;;;7.15;;
75470;SDS011;64051;46.320;48.028;2023-03-01T07:17:59;16.10;;;7.05;;
75470;SDS011;64051;46.320;48.028;2023-03-01T07:20:25;16.92;;;7.10;;
75470;SDS011;64051;46.320;48.028;2023-03-01T07:22:51;15.43;;;6.10;;
75470;SDS011;64051;46.320;48.028;2023-03-01T07:25:21;17.52;;;7.55;;
75470;SDS011;64051;46.320;48.028;2023-03-01T07:28:00;15.05;;;6.70;;
75470;SDS011;64051;46.320;48.028;2023-03-01T07:30:26;13.88;;;6.57;;
75470;SDS011;64051;46.320;48.028;2023-03-01T07:32:56;14.48;;;6.80;;
75470;SDS011;64051;46.320;48.028;2023-03-01T07:35:24;13.35;;;6.47;;
75470;SDS011;64051;46.320;48.028;2023-03-01T07:37:51;18.70;;;7.78;;
75470;SDS011;64051;46.320;48.028;2023-03-01T07:40:17;15.75;;;6.03;;
75470;SDS011;64051;46.320;48.028;2023-03-01T07:42:46;18.80;;;7.80;;
75470;SDS011;64051;46.320;48.028;2023-03-01T07:45:12;16.55;;;8.15;;
75470;SDS011;64051;46.320;48.028;2023-03-01T07:47:39;12.60;;;5.70;;
75470;SDS011;64051;46.320;48.028;2023-03-01T07:50:05;12.77;;;5.82;;
75470;SDS011;64051;46.320;48.028;2023-03-01T07:52:31;18.67;;;8.25;;
75470;SDS011;64051;46.320;48.028;2023-03-01T07:54:57;14.05;;;5.63;;
75470;SDS011;64051;46.320;48.028;2023-03-01T07:57:23;17.38;;;7.90;;
75470;SDS011;64051;46.320;48.028;2023-03-01T07:59:49;14.25;;;5.82;;
75470;SDS011;64051;46.320;48.028;2023-03-01T08:02:18;14.52;;;6.30;;
75470;SDS011;64051;46.320;48.028;2023-03-01T08:04:44;15.93;;;6.68;;
75470;SDS011;64051;46.320;48.028;2023-03-01T08:07:14;13.25;;;5.13;;
75470;SDS011;64051;46.320;48.028;2023-03-01T08:09:40;14.38;;;7.07;;
75470;SDS011;64051;46.320;48.028;2023-03-01T08:12:07;13.88;;;6.35;;
75470;SDS011;64051;46.320;48.028;2023-03-01T08:14:33;17.63;;;7.68;;
75470;SDS011;64051;46.320;48.028;2023-03-01T08:16:59;19.85;;;7.45;;
75470;SDS011;64051;46.320;48.028;2023-03-01T08:19:28;15.85;;;6.15;;
75470;SDS011;64051;46.320;48.028;2023-03-01T08:21:54;15.32;;;7.03;;
75470;SDS011;64051;46.320;48.028;2023-03-01T08:24:32;16.52;;;7.07;;
75470;SDS011;64051;46.320;48.028;2023-03-01T08:26:58;15.25;;;6.78;;
75470;SDS011;64051;46.320;48.028;2023-03-01T08:29:29;16.67;;;5.93;;
75470;SDS011;64051;46.320;48.028;2023-03-01T08:31:56;18.30;;;8.40;;
75470;SDS011;64051;46.320;48.028;2023-03-01T08:34:22;12.45;;;5.00;;
75470;SDS011;64051;46.320;48.028;2023-03-01T08:36:48;11.65;;;4.88;;
75470;SDS011;64051;46.320;48.028;2023-03-01T08:39:17;18.67;;;6.72;;
75470;SDS011;64051;46.320;48.028;2023-03-01T08:41:44;13.98;;;6.20;;
75470;SDS011;64051;46.320;48.028;2023-03-01T08:44:11;18.67;;;7.28;;
75470;SDS011;64051;46.320;48.028;2023-03-01T08:46:39;15.25;;;6.65;;
75470;SDS011;64051;46.320;48.028;2023-03-01T08:49:07;17.60;;;7.55;;
75470;SDS011;64051;46.320;48.028;2023-03-01T08:51:37;13.52;;;7.15;;
75470;SDS011;64051;46.320;48.028;2023-03-01T08:54:14;13.68;;;6.35;;
75470;SDS011;64051;46.320;48.028;2023-03-01T08:56:46;15.48;;;8.05;;
75470;SDS011;64051;46.320;48.028;2023-03-01T08:59:12;15.27;;;7.15;;
75470;SDS011;64051;46.320;48.028;2023-03-01T09:01:40;15.80;;;6.90;;
75470;SDS011;64051;46.320;48.028;2023-03-01T09:04:08;13.55;;;6.75;;
75470;SDS011;64051;46.320;48.028;2023-03-01T09:06:35;19.10;;;9.02;;
75470;SDS011;64051;46.320;48.028;2023-03-01T09:09:02;18.13;;;8.00;;
75470;SDS011;64051;46.320;48.028;2023-03-01T09:11:29;15.65;;;6.60;;
75470;SDS011;64051;46.320;48.028;2023-03-01T09:13:55;15.57;;;6.95;;
75470;SDS011;64051;46.320;48.028;2023-03-01T09:16:24;11.35;;;4.90;;
75470;SDS011;64051;46.320;48.028;2023-03-01T09:18:52;21.30;;;9.40;;
75470;SDS011;64051;46.320;48.028;2023-03-01T09:21:23;17.60;;;7.80;;
75470;SDS011;64051;46.320;48.028;2023-03-01T09:23:52;14.43;;;5.97;;
75470;SDS011;64051;46.320;48.028;2023-03-01T09:26:26;19.65;;;8.48;;
75470;SDS011;64051;46.320;48.028;2023-03-01T09:28:56;12.50;;;6.55;;
75470;SDS011;64051;46.320;48.028;2023-03-01T09:31:23;17.33;;;6.60;;
75470;SDS011;64051;46.320;48.028;2023-03-01T09:33:50;16.10;;;7.00;;
75470;SDS011;64051;46.320;48.028;2023-03-01T09:36:19;12.55;;;5.30;;
75470;SDS011;64051;46.320;48.028;2023-03-01T09:38:46;18.55;;;8.23;;
75470;SDS011;64051;46.320;48.028;2023-03-01T09:46:56;14.63;;;6.15;;
75470;SDS011;64051;46.320;48.028;2023-03-01T09:49:24;22.50;;;7.55;;
75470;SDS011;64051;46.320;48.028;2023-03-01T09:51:56;16.30;;;7.70;;
75470;SDS011;64051;46.320;48.028;2023-03-01T09:54:23;17.25;;;7.72;;
75470;SDS011;64051;46.320;48.028;2023-03-01T09:59:33;16.98;;;7.47;;
75470;SDS011;64051;46.320;48.028;2023-03-01T10:07:50;16.25;;;6.80;;
75470;SDS011;64051;46.320;48.028;2023-03-01T10:10:46;16.65;;;7.45;;
75470;SDS011;64051;46.320;48.028;2023-03-01T10:13:21;16.08;;;6.60;;
75470;SDS011;64051;46.320;48.028;2023-03-01T10:19:40;14.57;;;6.50;;
75470;SDS011;64051;46.320;48.028;2023-03-01T10:22:16;15.82;;;6.63;;
75470;SDS011;64051;46.320;48.028;2023-03-01T10:24:57;14.40;;;5.78;;
75470;SDS011;64051;46.320;48.028;2023-03-01T10:27:25;15.25;;;7.10;;
75470;SDS011;64051;46.320;48.028;2023-03-01T10:30:21;16.63;;;6.55;;
75470;SDS011;64051;46.320;48.028;2023-03-01T10:32:57;18.38;;;7.20;;
75470;SDS011;64051;46.320;48.028;2023-03-01T10:35:28;14.98;;;5.60;;
75470;SDS011;64051;46.320;48.028;2023-03-01T10:38:11;11.95;;;5.10;;
75470;SDS011;64051;46.320;48.028;2023-03-01T10:43:19;11.10;;;5.00;;
75470;SDS011;64051;46.320;48.028;2023-03-01T10:45:48;12.15;;;6.25;;
75470;SDS011;64051;46.320;48.028;2023-03-01T10:48:18;18.02;;;6.00;;
75470;SDS011;64051;46.320;48.028;2023-03-01T10:50:51;14.85;;;7.00;;
75470;SDS011;64051;46.320;48.028;2023-03-01T10:56:07;13.95;;;6.20;;
75470;SDS011;64051;46.320;48.028;2023-03-01T10:58:56;14.73;;;5.82;;
75470;SDS011;64051;46.320;48.028;2023-03-01T11:01:26;20.02;;;8.30;;
75470;SDS011;64051;46.320;48.028;2023-03-01T11:04:09;16.15;;;7.28;;
75470;SDS011;64051;46.320;48.028;2023-03-01T11:06:39;15.15;;;6.85;;
75470;SDS011;64051;46.320;48.028;2023-03-01T11:09:20;15.32;;;6.22;;
75470;SDS011;64051;46.320;48.028;2023-03-01T11:11:54;11.98;;;5.30;;
75470;SDS011;64051;46.320;48.028;2023-03-01T11:14:23;12.55;;;4.93;;
75470;SDS011;64051;46.320;48.028;2023-03-01T11:17:03;15.05;;;5.70;;
75470;SDS011;64051;46.320;48.028;2023-03-01T11:19:36;11.98;;;5.15;;
75470;SDS011;64051;46.320;48.028;2023-03-01T11:22:03;13.70;;;4.63;;
75470;SDS011;64051;46.320;48.028;2023-03-01T11:27:26;12.43;;;5.07;;
75470;SDS011;64051;46.320;48.028;2023-03-01T11:29:58;12.32;;;5.60;;
75470;SDS011;64051;46.320;48.028;2023-03-01T11:32:40;13.65;;;6.55;;
75470;SDS011;64051;46.320;48.028;2023-03-01T11:35:27;11.30;;;5.47;;
75470;SDS011;64051;46.320;48.028;2023-03-01T11:49:00;12.75;;;5.82;;
75470;SDS011;64051;46.320;48.028;2023-03-01T11:54:09;15.40;;;6.45;;
75470;SDS011;64051;46.320;48.028;2023-03-01T11:56:57;11.85;;;5.65;;
75470;SDS011;64051;46.320;48.028;2023-03-01T12:00:18;10.77;;;5.03;;
75470;SDS011;64051;46.320;48.028;2023-03-01T12:08:18;9.25;;;4.25;;
75470;SDS011;64051;46.320;48.028;2023-03-01T12:11:07;9.35;;;4.03;;
75470;SDS011;64051;46.320;48.028;2023-03-01T12:13:41;13.02;;;4.90;;
75470;SDS011;64051;46.320;48.028;2023-03-01T12:16:19;15.82;;;5.47;;
75470;SDS011;64051;46.320;48.028;2023-03-01T12:21:58;12.02;;;4.95;;
75470;SDS011;64051;46.320;48.028;2023-03-01T12:25:31;11.25;;;4.90;;
75470;SDS011;64051;46.320;48.028;2023-03-01T12:28:08;9.65;;;3.80;;
75470;SDS011;64051;46.320;48.028;2023-03-01T12:33:39;8.93;;;3.40;;
75470;SDS011;64051;46.320;48.028;2023-03-01T12:39:28;8.35;;;4.13;;
75470;SDS011;64051;46.320;48.028;2023-03-01T12:42:01;9.25;;;3.67;;
75470;SDS011;64051;46.320;48.028;2023-03-01T12:44:42;7.68;;;3.88;;
75470;SDS011;64051;46.320;48.028;2023-03-01T12:50:11;9.38;;;3.95;;
75470;SDS011;64051;46.320;48.028;2023-03-01T12:52:53;7.47;;;3.22;;
75470;SDS011;64051;46.320;48.028;2023-03-01T12:55:24;7.05;;;2.95;;
75470;SDS011;64051;46.320;48.028;2023-03-01T13:04:02;6.82;;;3.05;;
75470;SDS011;64051;46.320;48.028;2023-03-01T13:09:48;5.38;;;2.50;;
75470;SDS011;64051;46.320;48.028;2023-03-01T13:18:03;14.55;;;4.22;;
75470;SDS011;64051;46.320;48.028;2023-03-01T13:20:51;9.95;;;4.30;;
75470;SDS011;64051;46.320;48.028;2023-03-01T13:28:50;10.13;;;4.32;;
75470;SDS011;64051;46.320;48.028;2023-03-01T13:33:56;7.82;;;3.90;;
75470;SDS011;64051;46.320;48.028;2023-03-01T13:39:29;8.75;;;3.33;;
75470;SDS011;64051;46.320;48.028;2023-03-01T13:42:01;7.60;;;3.03;;
75470;SDS011;64051;46.320;48.028;2023-03-01T13:44:49;7.47;;;3.47;;
75470;SDS011;64051;46.320;48.028;2023-03-01T13:47:16;8.07;;;3.70;;
75470;SDS011;64051;46.320;48.028;2023-03-01T13:49:45;8.00;;;3.50;;
75470;SDS011;64051;46.320;48.028;2023-03-01T13:55:17;8.82;;;3.85;;
75470;SDS011;64051;46.320;48.028;2023-03-01T13:57:48;8.57;;;4.15;;
75470;SDS011;64051;46.320;48.028;2023-03-01T14:03:14;8.50;;;3.15;;
75470;SDS011;64051;46.320;48.028;2023-03-01T14:05:44;9.13;;;3.65;;
75470;SDS011;64051;46.320;48.028;2023-03-01T14:08:25;6.72;;;2.55;;
75470;SDS011;64051;46.320;48.028;2023-03-01T14:19:09;11.98;;;4.38;;
75470;SDS011;64051;46.320;48.028;2023-03-01T14:21:45;9.77;;;3.22;;
75470;SDS011;64051;46.320;48.028;2023-03-01T14:24:16;10.93;;;4.18;;
75470;SDS011;64051;46.320;48.028;2023-03-01T14:26:46;10.82;;;4.13;;
75470;SDS011;64051;46.320;48.028;2023-03-01T14:29:26;10.73;;;4.47;;
75470;SDS011;64051;46.320;48.028;2023-03-01T14:32:35;17.23;;;6.63;;
75470;SDS011;64051;46.320;48.028;2023-03-01T14:34:58;14.45;;;7.78;;
75470;SDS011;64051;46.320;48.028;2023-03-01T14:37:30;18.33;;;8.25;;
75470;SDS011;64051;46.320;48.028;2023-03-01T14:39:58;14.05;;;7.75;;
75470;SDS011;64051;46.320;48.028;2023-03-01T14:42:27;22.67;;;11.00;;
75470;SDS011;64051;46.320;48.028;2023-03-01T14:45:01;16.17;;;8.73;;
75470;SDS011;64051;46.320;48.028;2023-03-01T14:47:33;20.77;;;11.50;;
75470;SDS011;64051;46.320;48.028;2023-03-01T14:50:08;23.80;;;12.88;;
75470;SDS011;64051;46.320;48.028;2023-03-01T14:52:57;24.05;;;12.80;;
75470;SDS011;64051;46.320;48.028;2023-03-01T14:55:33;18.27;;;10.00;;
75470;SDS011;64051;46.320;48.028;2023-03-01T14:58:05;19.90;;;11.25;;
75470;SDS011;64051;46.320;48.028;2023-03-01T15:00:46;17.73;;;8.20;;
75470;SDS011;64051;46.320;48.028;2023-03-01T15:03:54;20.10;;;11.13;;
75470;SDS011;64051;46.320;48.028;2023-03-01T15:06:15;20.38;;;11.07;;
75470;SDS011;64051;46.320;48.028;2023-03-01T15:08:47;23.45;;;13.43;;
75470;SDS011;64051;46.320;48.028;2023-03-01T15:13:46;22.30;;;12.27;;
75470;SDS011;64051;46.320;48.028;2023-03-01T15:16:46;19.65;;;10.77;;
75470;SDS011;64051;46.320;48.028;2023-03-01T15:19:15;12.45;;;6.65;;
75470;SDS011;64051;46.320;48.028;2023-03-01T15:21:44;17.23;;;9.40;;
75470;SDS011;64051;46.320;48.028;2023-03-01T15:24:33;22.80;;;10.27;;
75470;SDS011;64051;46.320;48.028;2023-03-01T15:27:01;15.35;;;7.47;;
75470;SDS011;64051;46.320;48.028;2023-03-01T15:29:32;13.18;;;6.03;;
75470;SDS011;64051;46.320;48.028;2023-03-01T15:32:06;12.55;;;5.55;;
75470;SDS011;64051;46.320;48.028;2023-03-01T15:35:00;19.30;;;9.13;;
75470;SDS011;64051;46.320;48.028;2023-03-01T15:37:52;16.58;;;7.20;;
75470;SDS011;64051;46.320;48.028;2023-03-01T15:40:25;17.65;;;8.18;;
75470;SDS011;64051;46.320;48.028;2023-03-01T15:43:02;14.02;;;5.28;;
75470;SDS011;64051;46.320;48.028;2023-03-01T15:45:35;15.75;;;8.05;;
75470;SDS011;64051;46.320;48.028;2023-03-01T15:48:13;12.88;;;7.50;;
75470;SDS011;64051;46.320;48.028;2023-03-01T15:50:55;10.13;;;5.35;;
75470;SDS011;64051;46.320;48.028;2023-03-01T15:53:29;10.23;;;5.40;;
75470;SDS011;64051;46.320;48.028;2023-03-01T15:56:03;13.90;;;6.57;;
75470;SDS011;64051;46.320;48.028;2023-03-01T15:58:32;14.68;;;5.40;;
75470;SDS011;64051;46.320;48.028;2023-03-01T16:01:12;15.15;;;7.35;;
75470;SDS011;64051;46.320;48.028;2023-03-01T16:03:44;11.23;;;4.82;;
75470;SDS011;64051;46.320;48.028;2023-03-01T16:06:27;11.73;;;4.65;;
75470;SDS011;64051;46.320;48.028;2023-03-01T16:09:05;15.27;;;6.72;;
75470;SDS011;64051;46.320;48.028;2023-03-01T16:11:30;12.60;;;5.78;;
75470;SDS011;64051;46.320;48.028;2023-03-01T16:14:04;11.85;;;4.78;;
75470;SDS011;64051;46.320;48.028;2023-03-01T16:16:33;13.15;;;6.93;;
75470;SDS011;64051;46.320;48.028;2023-03-01T16:19:05;5.50;;;3.10;;
75470;SDS011;64051;46.320;48.028;2023-03-01T16:21:34;11.50;;;4.55;;
75470;SDS011;64051;46.320;48.028;2023-03-01T16:24:03;15.27;;;6.80;;
75470;SDS011;64051;46.320;48.028;2023-03-01T16:26:38;16.17;;;8.02;;
75470;SDS011;64051;46.320;48.028;2023-03-01T16:29:04;12.70;;;6.15;;
75470;SDS011;64051;46.320;48.028;2023-03-01T16:31:36;9.52;;;4.40;;
75470;SDS011;64051;46.320;48.028;2023-03-01T16:34:05;10.27;;;6.47;;
75470;SDS011;64051;46.320;48.028;2023-03-01T16:36:40;15.25;;;8.07;;
75470;SDS011;64051;46.320;48.028;2023-03-01T16:39:08;16.50;;;8.73;;